createdAt,value
2023-11-06T00:00:13.175Z,7.79
2023-11-06T00:06:14.747Z,7.80
2023-11-06T00:12:16.343Z,7.77
2023-11-06T00:18:18.000Z,7.92
2023-11-06T00:24:19.711Z,8.04
2023-11-06T00:30:21.347Z,8.11
2023-11-06T00:36:24.332Z,8.00
2023-11-06T00:42:26.047Z,8.00
2023-11-06T00:48:27.703Z,7.98
2023-11-06T00:54:33.508Z,7.86
2023-11-06T01:00:35.067Z,7.85
2023-11-06T01:06:37.803Z,7.98
2023-11-06T01:12:40.867Z,8.28
2023-11-06T01:18:42.557Z,8.37
2023-11-06T01:24:44.446Z,8.22
2023-11-06T01:30:46.067Z,8.10
2023-11-06T01:36:48.989Z,8.02
2023-11-06T01:42:53.128Z,7.79
2023-11-06T01:48:55.464Z,7.73
2023-11-06T01:54:59.019Z,7.72
2023-11-06T02:01:01.466Z,7.69
2023-11-06T02:07:03.124Z,7.62
2023-11-06T02:13:05.317Z,7.62
2023-11-06T02:19:08.966Z,7.59
2023-11-06T02:25:10.946Z,7.54
2023-11-06T02:31:12.605Z,7.58
2023-11-06T02:37:14.181Z,7.59
2023-11-06T02:43:15.729Z,7.50
2023-11-06T02:49:17.320Z,7.55
2023-11-06T02:55:18.902Z,7.50
2023-11-06T03:01:20.943Z,7.47
2023-11-06T03:07:22.590Z,7.37
2023-11-06T03:13:24.220Z,7.35
2023-11-06T03:19:25.789Z,7.20
2023-11-06T03:25:27.337Z,7.08
2023-11-06T03:31:29.047Z,7.00
2023-11-06T03:37:30.764Z,6.93
2023-11-06T03:43:32.985Z,6.92
2023-11-06T03:49:34.610Z,6.91
2023-11-06T03:55:36.301Z,6.89
2023-11-06T04:01:38.016Z,6.76
2023-11-06T04:07:39.657Z,6.78
2023-11-06T04:13:41.226Z,6.60
2023-11-06T04:19:42.808Z,6.63
2023-11-06T04:25:49.458Z,6.55
2023-11-06T04:31:51.122Z,6.47
2023-11-06T04:37:52.829Z,6.37
2023-11-06T04:43:54.448Z,6.42
2023-11-06T04:49:56.218Z,6.50
2023-11-06T04:55:58.346Z,6.47
2023-11-06T05:01:59.974Z,6.57
2023-11-06T05:08:01.568Z,6.60
2023-11-06T05:14:03.826Z,6.55
2023-11-06T05:20:07.180Z,6.61
2023-11-06T05:26:10.139Z,6.51
2023-11-06T05:32:13.319Z,6.44
2023-11-06T05:38:15.295Z,6.43
2023-11-06T05:44:17.611Z,6.48
2023-11-06T05:50:19.290Z,6.53
2023-11-06T05:56:20.937Z,6.70
2023-11-06T06:02:22.593Z,6.86
2023-11-06T06:08:24.415Z,6.98
2023-11-06T06:14:26.514Z,7.00
2023-11-06T06:20:28.379Z,6.93
2023-11-06T06:26:30.534Z,6.90
2023-11-06T06:32:32.280Z,6.97
2023-11-06T06:38:34.093Z,7.15
2023-11-06T06:44:35.706Z,7.43
2023-11-06T06:50:37.362Z,7.64
2023-11-06T06:56:38.975Z,7.64
2023-11-06T07:02:40.777Z,7.68
2023-11-06T07:08:43.549Z,7.82
2023-11-06T07:14:45.126Z,7.99
2023-11-06T07:20:47.259Z,8.37
2023-11-06T07:26:48.922Z,8.71
2023-11-06T07:32:51.262Z,9.23
2023-11-06T07:38:53.497Z,9.74
2023-11-06T07:44:55.048Z,10.53
2023-11-06T07:50:56.783Z,11.31
2023-11-06T07:56:58.504Z,11.92
2023-11-06T08:03:00.155Z,13.07
2023-11-06T08:09:01.759Z,15.79
2023-11-06T08:15:06.167Z,18.28
2023-11-06T08:21:07.816Z,18.83
2023-11-06T08:27:10.447Z,20.08
2023-11-06T08:33:13.877Z,20.45
2023-11-06T08:39:18.112Z,21.54
2023-11-06T08:45:19.846Z,21.56
2023-11-06T08:51:22.001Z,21.38
2023-11-06T08:57:24.140Z,20.42
2023-11-06T09:03:25.775Z,20.87
2023-11-06T09:09:28.656Z,20.97
2023-11-06T09:15:30.978Z,22.14
2023-11-06T09:21:33.533Z,21.75
2023-11-06T09:27:35.930Z,22.50
2023-11-06T09:33:37.984Z,21.77
2023-11-06T09:39:44.228Z,22.39
2023-11-06T09:45:46.212Z,23.17
2023-11-06T09:51:53.332Z,23.16
2023-11-06T09:57:57.206Z,23.36
2023-11-06T10:03:59.034Z,23.19
2023-11-06T10:10:14.898Z,23.74
2023-11-06T10:16:24.703Z,24.10
2023-11-06T10:22:28.154Z,24.14
2023-11-06T10:28:30.041Z,24.43
2023-11-06T10:34:34.337Z,23.51
2023-11-06T10:40:38.388Z,23.64
2023-11-06T10:46:40.047Z,22.87
2023-11-06T10:52:46.270Z,22.68
2023-11-06T10:58:49.251Z,22.86
2023-11-06T11:04:52.918Z,20.39
2023-11-06T11:10:57.616Z,20.05
2023-11-06T11:23:09.870Z,21.48
2023-11-06T11:29:11.518Z,21.01
2023-11-06T11:35:14.450Z,20.13
2023-11-06T11:41:16.838Z,19.95
2023-11-06T11:47:18.558Z,19.71
2023-11-06T11:53:34.416Z,19.85
2023-11-06T11:59:53.854Z,20.07
2023-11-06T12:06:00.828Z,19.52
2023-11-06T12:12:02.644Z,19.46
2023-11-06T12:18:11.368Z,18.84
2023-11-06T12:24:13.418Z,19.32
2023-11-06T12:30:15.573Z,19.30
2023-11-06T12:36:33.404Z,17.80
2023-11-06T12:42:35.798Z,17.16
2023-11-06T12:48:38.392Z,16.90
2023-11-06T12:54:40.211Z,16.94
2023-11-06T13:00:43.683Z,16.88
2023-11-06T13:06:45.999Z,16.14
2023-11-06T13:12:48.827Z,15.58
2023-11-06T13:18:50.475Z,15.05
2023-11-06T13:24:52.098Z,14.94
2023-11-06T13:30:55.369Z,14.76
2023-11-06T13:36:57.683Z,14.60
2023-11-06T13:42:59.878Z,14.45
2023-11-06T13:49:01.953Z,14.16
2023-11-06T13:55:12.917Z,14.08
2023-11-06T14:01:14.982Z,13.86
2023-11-06T14:07:16.616Z,13.71
2023-11-06T14:13:20.774Z,13.51
2023-11-06T14:19:26.392Z,13.31
2023-11-06T14:25:28.104Z,13.03
2023-11-06T14:31:32.483Z,13.03
2023-11-06T14:37:37.994Z,12.75
2023-11-06T14:43:40.174Z,12.70
2023-11-06T14:49:41.930Z,12.57
2023-11-06T14:55:43.648Z,12.47
2023-11-06T15:01:45.244Z,12.45
2023-11-06T15:07:50.828Z,12.39
2023-11-06T15:13:52.378Z,12.20
2023-11-06T15:19:53.939Z,11.88
2023-11-06T15:25:55.472Z,11.85
2023-11-06T15:31:57.084Z,11.51
2023-11-06T15:37:58.647Z,11.35
2023-11-06T15:44:00.260Z,11.25
2023-11-06T15:50:02.005Z,11.17
2023-11-06T15:56:10.498Z,11.29
2023-11-06T16:02:12.192Z,11.30
2023-11-06T16:08:13.895Z,10.91
2023-11-06T16:14:19.302Z,10.81
2023-11-06T16:20:22.427Z,10.77
2023-11-06T16:26:23.976Z,10.69
2023-11-06T16:32:27.847Z,10.58
2023-11-06T16:38:30.976Z,10.50
2023-11-06T16:44:33.745Z,10.48
2023-11-06T16:50:35.908Z,10.37
2023-11-06T16:56:39.631Z,10.19
2023-11-06T17:02:41.646Z,10.03
2023-11-06T17:08:46.270Z,9.87
2023-11-06T17:14:47.861Z,9.87
2023-11-06T17:20:49.654Z,9.82
2023-11-06T17:26:51.298Z,9.75
2023-11-06T17:32:53.641Z,9.70
2023-11-06T17:38:57.338Z,9.67
2023-11-06T17:44:58.958Z,9.66
2023-11-06T17:51:01.718Z,9.67
2023-11-06T17:57:03.324Z,9.63
2023-11-06T18:03:06.321Z,9.65
2023-11-06T18:09:09.128Z,9.71
2023-11-06T18:15:12.255Z,9.62
2023-11-06T18:21:14.491Z,9.54
2023-11-06T18:27:16.176Z,9.54
2023-11-06T18:33:17.984Z,9.71
2023-11-06T18:39:19.676Z,9.70
2023-11-06T18:45:23.930Z,9.75
2023-11-06T18:51:25.838Z,9.78
2023-11-06T18:57:27.441Z,9.70
2023-11-06T19:03:29.258Z,9.67
2023-11-06T19:09:32.069Z,9.68
2023-11-06T19:15:33.662Z,9.61
2023-11-06T19:21:35.734Z,9.48
2023-11-06T19:27:37.586Z,9.35
2023-11-06T19:33:39.292Z,9.25
2023-11-06T19:39:41.039Z,9.17
2023-11-06T19:45:42.803Z,9.13
2023-11-06T19:51:44.415Z,9.11
2023-11-06T19:57:46.536Z,9.11
2023-11-06T20:03:48.222Z,9.05
2023-11-06T20:09:49.894Z,8.97
2023-11-06T20:15:51.610Z,8.99
2023-11-06T20:21:53.441Z,8.97
2023-11-06T20:27:55.085Z,8.91
2023-11-06T20:33:57.731Z,9.05
2023-11-06T20:39:59.399Z,8.97
2023-11-06T20:46:01.151Z,8.90
2023-11-06T20:52:02.865Z,8.88
2023-11-06T20:58:04.548Z,8.72
2023-11-06T21:04:06.263Z,8.49
2023-11-06T21:10:08.983Z,8.33
2023-11-06T21:16:10.670Z,8.05
2023-11-06T21:22:12.238Z,7.80
2023-11-06T21:28:13.815Z,7.60
2023-11-06T21:34:15.545Z,7.50
2023-11-06T21:40:17.828Z,7.51
2023-11-06T21:46:20.002Z,7.49
2023-11-06T21:52:23.604Z,7.59
2023-11-06T21:58:30.135Z,7.68
2023-11-06T22:04:32.354Z,7.68
2023-11-06T22:10:34.024Z,7.66
2023-11-06T22:16:35.650Z,7.61
2023-11-06T22:22:39.325Z,7.68
2023-11-06T22:28:40.977Z,7.70
2023-11-06T22:34:42.570Z,7.66
2023-11-06T22:40:45.204Z,7.59
2023-11-06T22:46:46.878Z,7.55
2023-11-06T22:52:48.541Z,7.62
2023-11-06T22:58:50.347Z,7.66
2023-11-06T23:04:53.248Z,7.50
2023-11-06T23:10:55.002Z,7.48
2023-11-06T23:16:56.626Z,7.37
2023-11-06T23:22:59.772Z,7.26
2023-11-06T23:29:01.342Z,7.20
2023-11-06T23:35:04.902Z,7.20
2023-11-06T23:41:07.102Z,7.20
2023-11-06T23:47:09.129Z,7.22
2023-11-06T23:53:10.819Z,7.21
2023-11-06T23:59:15.283Z,7.22
